Time;durP1;ratioP1;P1;durP2;ratioP2;P2;SDS_P1;SDS_P2;PMS_P1;PMS_P2;Temp;Humidity;BMP_temperature;BMP_pressure;BME280_temperature;BME280_humidity;BME280_pressure;Samples;Min_cycle;Max_cycle;Signal;HPM_P1;HPM_P2
2022/10/25 00:01:33;;;;;;;122.28;29.73;;;12.30;99.90;;;;;;5026450;28;20041;-65
2022/10/25 00:04:01;;;;;;;120.43;29.23;;;12.20;99.90;;;;;;5028905;28;20034;-65
2022/10/25 00:06:28;;;;;;;106.28;28.13;;;12.30;99.90;;;;;;5029884;28;20041;-66
2022/10/25 00:08:53;;;;;;;105.60;28.77;;;12.30;99.90;;;;;;5026560;28;20033;-65
2022/10/25 00:11:40;;;;;;;111.47;28.17;;;12.30;99.90;;;;;;5026023;28;20034;-66
2022/10/25 00:14:38;;;;;;;101.90;26.90;;;12.30;99.90;;;;;;5025921;28;20374;-65
2022/10/25 00:17:04;;;;;;;109.85;26.80;;;12.20;99.90;;;;;;5010013;28;20037;-66
2022/10/25 00:19:35;;;;;;;101.35;27.10;;;12.10;99.90;;;;;;5008881;28;20131;-65
2022/10/25 00:22:07;;;;;;;108.90;26.42;;;12.10;99.90;;;;;;5020293;28;20443;-65
2022/10/25 00:24:32;;;;;;;92.55;25.75;;;12.20;99.90;;;;;;4998043;28;20087;-64
2022/10/25 00:26:59;;;;;;;103.63;25.63;;;12.10;99.90;;;;;;5026603;28;20430;-65
2022/10/25 00:29:44;;;;;;;96.70;25.63;;;12.10;99.90;;;;;;5021882;28;20501;-66
2022/10/25 00:32:12;;;;;;;90.10;24.58;;;12.10;99.90;;;;;;5026251;28;20099;-65
2022/10/25 00:34:41;;;;;;;92.38;23.70;;;12.10;99.90;;;;;;5019998;28;20419;-65
2022/10/25 00:37:06;;;;;;;89.30;24.70;;;12.10;99.90;;;;;;5004537;28;20095;-64
2022/10/25 00:39:32;;;;;;;96.68;24.75;;;12.00;99.90;;;;;;5027753;28;20385;-65
2022/10/25 00:42:20;;;;;;;88.75;24.80;;;12.00;99.90;;;;;;5023815;28;20037;-66
2022/10/25 00:45:00;;;;;;;88.63;24.33;;;12.10;99.90;;;;;;5006680;28;20037;-66
2022/10/25 00:47:46;;;;;;;94.00;24.70;;;12.10;99.90;;;;;;5026163;28;20049;-65
2022/10/25 00:50:31;;;;;;;86.53;25.40;;;12.10;99.90;;;;;;5025439;28;20045;-65
2022/10/25 00:53:04;;;;;;;94.38;23.98;;;12.20;99.90;;;;;;5013944;28;20056;-66
2022/10/25 00:55:29;;;;;;;;;;;12.20;99.90;;;;;;5030222;28;20033;-65
2022/10/25 00:58:08;;;;;;;93.38;25.13;;;12.30;99.90;;;;;;5029192;28;20391;-64
2022/10/25 01:00:36;;;;;;;81.07;23.50;;;12.30;99.90;;;;;;5024241;28;20396;-65
2022/10/25 01:03:04;;;;;;;84.40;23.75;;;12.30;99.90;;;;;;5030243;28;20396;-64
2022/10/25 01:05:29;;;;;;;90.57;24.02;;;12.40;99.90;;;;;;5014357;28;20056;-65
2022/10/25 01:07:55;;;;;;;78.15;23.20;;;12.50;99.90;;;;;;5023210;28;20046;-65
2022/10/25 01:10:21;;;;;;;88.78;22.58;;;12.50;99.90;;;;;;5027446;28;20068;-64
2022/10/25 01:12:46;;;;;;;86.68;24.50;;;12.60;99.90;;;;;;5012964;28;20068;-65
2022/10/25 01:15:12;;;;;;;93.10;23.73;;;12.70;99.90;;;;;;5031877;28;20045;-65
2022/10/25 01:17:53;;;;;;;80.28;22.30;;;12.70;99.90;;;;;;5030700;28;20140;-65
2022/10/25 01:20:37;;;;;;;70.00;21.80;;;12.70;99.90;;;;;;5028641;28;20120;-65
2022/10/25 01:23:46;;;;;;;84.78;21.17;;;12.70;99.90;;;;;;5028525;28;20045;-65
2022/10/25 01:26:41;;;;;;;83.82;21.05;;;12.80;99.90;;;;;;5012936;28;20152;-64
2022/10/25 01:29:44;;;;;;;83.35;20.95;;;12.80;99.90;;;;;;5024666;28;20061;-65
2022/10/25 01:32:12;;;;;;;79.10;20.60;;;12.70;99.90;;;;;;5026230;28;20401;-65
2022/10/25 01:34:56;;;;;;;69.38;20.55;;;12.70;99.90;;;;;;5028968;28;20049;-65
2022/10/25 01:37:26;;;;;;;78.63;21.77;;;12.80;99.90;;;;;;5028406;28;20037;-65
2022/10/25 01:40:01;;;;;;;83.35;21.02;;;12.80;99.90;;;;;;5031536;28;20041;-67
2022/10/25 01:42:29;;;;;;;81.40;20.38;;;12.80;99.90;;;;;;5029824;28;20037;-64
2022/10/25 01:45:07;;;;;;;78.85;21.15;;;12.80;99.90;;;;;;5014425;28;20132;-64
2022/10/25 01:47:45;;;;;;;73.20;20.38;;;12.90;99.90;;;;;;5029818;28;20044;-65
2022/10/25 01:50:19;;;;;;;78.25;19.85;;;12.80;99.90;;;;;;5028026;28;20056;-65
2022/10/25 01:52:48;;;;;;;75.80;19.80;;;12.70;99.90;;;;;;5028059;28;20034;-65
2022/10/25 01:55:14;;;;;;;79.53;21.35;;;12.90;99.90;;;;;;5031206;28;20563;-65
2022/10/25 01:57:54;;;;;;;71.78;20.00;;;12.80;99.90;;;;;;5030507;28;20056;-65
2022/10/25 02:00:22;;;;;;;75.75;20.45;;;12.90;99.90;;;;;;5023722;28;20080;-64
2022/10/25 02:03:08;;;;;;;77.22;20.30;;;12.90;99.90;;;;;;5003961;28;20045;-64
2022/10/25 02:05:58;;;;;;;80.95;21.15;;;13.00;99.90;;;;;;5025430;28;20072;-66
2022/10/25 02:08:32;;;;;;;73.80;19.45;;;13.00;99.90;;;;;;5023135;28;20388;-65
2022/10/25 02:11:27;;;;;;;84.22;22.02;;;12.90;99.90;;;;;;5027950;28;20041;-65
2022/10/25 02:14:19;;;;;;;82.40;21.85;;;13.00;99.90;;;;;;5028653;28;20481;-66
2022/10/25 02:16:44;;;;;;;79.28;22.10;;;13.00;99.90;;;;;;5012217;28;20041;-65
2022/10/25 02:19:15;;;;;;;81.07;22.35;;;13.00;99.90;;;;;;5028620;28;20057;-65
2022/10/25 02:21:42;;;;;;;87.85;22.40;;;13.10;99.90;;;;;;5027289;28;20038;-65
2022/10/25 02:24:20;;;;;;;84.00;22.52;;;13.00;99.90;;;;;;5022173;28;21973;-65
2022/10/25 02:26:49;;;;;;;92.03;22.83;;;13.10;99.90;;;;;;5026309;28;20037;-66
2022/10/25 02:29:17;;;;;;;88.53;21.33;;;13.10;99.90;;;;;;5027577;28;20052;-65
2022/10/25 02:31:43;;;;;;;91.05;22.45;;;13.10;99.90;;;;;;5027638;28;20068;-65
2022/10/25 02:34:08;;;;;;;86.35;21.73;;;13.00;99.90;;;;;;5030264;28;20587;-65
2022/10/25 02:36:34;;;;;;;100.75;23.65;;;13.00;99.90;;;;;;5024862;28;20127;-64
2022/10/25 02:39:00;;;;;;;85.03;22.50;;;13.00;99.90;;;;;;5028715;28;20038;-65
2022/10/25 02:41:26;;;;;;;81.40;22.45;;;13.00;99.90;;;;;;5028867;28;20049;-66
2022/10/25 02:43:52;;;;;;;85.07;21.30;;;12.90;99.90;;;;;;5029958;28;20079;-65
2022/10/25 02:46:20;;;;;;;86.32;22.15;;;12.90;99.90;;;;;;5027764;28;20045;-65
2022/10/25 02:48:47;;;;;;;95.22;23.02;;;12.90;99.90;;;;;;5028328;28;20409;-67
2022/10/25 02:51:13;;;;;;;88.90;23.23;;;12.80;99.90;;;;;;5013334;28;20041;-65
2022/10/25 02:53:39;;;;;;;96.85;21.75;;;12.80;99.90;;;;;;5027891;28;20118;-65
2022/10/25 02:56:08;;;;;;;85.28;23.10;;;12.90;99.90;;;;;;5029944;28;20088;-65
2022/10/25 02:58:36;;;;;;;93.97;23.27;;;12.80;99.90;;;;;;5029554;28;20488;-66
2022/10/25 03:01:02;;;;;;;96.63;23.45;;;12.80;99.90;;;;;;5028267;28;20048;-65
2022/10/25 03:03:28;;;;;;;91.05;22.58;;;12.80;99.90;;;;;;5019769;28;20036;-65
2022/10/25 03:05:53;;;;;;;88.22;23.27;;;12.80;99.90;;;;;;5024178;28;20128;-65
2022/10/25 03:08:19;;;;;;;95.35;23.65;;;12.90;99.90;;;;;;5030149;28;20057;-65
2022/10/25 03:10:45;;;;;;;92.65;23.63;;;12.80;99.90;;;;;;5025369;28;20037;-65
2022/10/25 03:13:11;;;;;;;88.47;22.75;;;12.80;99.90;;;;;;5026221;28;20033;-65
2022/10/25 03:15:37;;;;;;;93.15;23.92;;;12.90;99.90;;;;;;5025270;28;20476;-65
2022/10/25 03:18:03;;;;;;;93.72;23.90;;;12.90;99.90;;;;;;5027684;28;20037;-65
2022/10/25 03:20:28;;;;;;;90.60;24.20;;;12.90;99.90;;;;;;5025223;28;20041;-65
2022/10/25 03:22:55;;;;;;;96.22;23.65;;;12.80;99.90;;;;;;5025894;28;20045;-66
2022/10/25 03:25:21;;;;;;;98.75;23.42;;;12.80;99.90;;;;;;5025525;28;20041;-66
2022/10/25 03:27:46;;;;;;;101.07;24.25;;;12.80;99.90;;;;;;5022910;28;20042;-65
2022/10/25 03:30:13;;;;;;;91.85;23.15;;;13.00;99.90;;;;;;5029768;28;20522;-65
2022/10/25 03:32:39;;;;;;;83.75;22.90;;;12.90;99.90;;;;;;5030358;28;20065;-65
2022/10/25 03:35:05;;;;;;;103.43;24.00;;;12.90;99.90;;;;;;5022830;28;20075;-65
2022/10/25 03:37:30;;;;;;;92.30;23.98;;;13.00;99.90;;;;;;5022925;28;20579;-65
2022/10/25 03:39:56;;;;;;;96.18;23.42;;;12.90;99.90;;;;;;5013776;28;20065;-65
2022/10/25 03:42:22;;;;;;;94.68;23.40;;;12.90;99.90;;;;;;5020714;28;20095;-65
2022/10/25 03:44:47;;;;;;;94.32;23.73;;;13.00;99.90;;;;;;5005055;28;20038;-65
2022/10/25 03:47:13;;;;;;;91.85;24.02;;;13.00;99.90;;;;;;5025114;28;20523;-65
2022/10/25 03:49:38;;;;;;;105.25;23.52;;;12.90;99.90;;;;;;5024821;28;20124;-66
2022/10/25 03:52:11;;;;;;;97.95;23.95;;;12.80;99.90;;;;;;5025215;28;20489;-66
2022/10/25 03:54:37;;;;;;;94.18;24.33;;;12.90;99.90;;;;;;5027832;28;20044;-65
2022/10/25 03:57:03;;;;;;;95.07;23.48;;;12.80;99.90;;;;;;5029008;28;20038;-66
2022/10/25 03:59:30;;;;;;;95.18;22.65;;;12.90;99.90;;;;;;5023447;28;20124;-65
2022/10/25 04:01:57;;;;;;;93.30;23.25;;;12.80;99.90;;;;;;5019728;28;20120;-65
2022/10/25 04:04:22;;;;;;;98.78;23.58;;;12.80;99.90;;;;;;5026521;28;20045;-65
2022/10/25 04:06:48;;;;;;;91.13;23.17;;;12.90;99.90;;;;;;5025503;28;20045;-65
2022/10/25 04:09:13;;;;;;;101.35;23.17;;;12.90;99.90;;;;;;5027118;28;20128;-67
2022/10/25 04:11:39;;;;;;;100.38;24.27;;;12.90;99.90;;;;;;5025338;28;20749;-65
2022/10/25 04:14:04;;;;;;;101.03;23.60;;;12.90;99.90;;;;;;5009320;28;20067;-64
2022/10/25 04:16:30;;;;;;;94.47;22.75;;;12.90;99.90;;;;;;5023270;28;20037;-65
2022/10/25 04:18:57;;;;;;;93.80;22.52;;;13.00;99.90;;;;;;5029485;28;20045;-66
2022/10/25 04:21:23;;;;;;;89.82;22.65;;;13.00;99.90;;;;;;5027314;28;20037;-66
2022/10/25 04:23:49;;;;;;;99.10;21.98;;;12.90;99.90;;;;;;5025176;28;20067;-65
2022/10/25 04:26:19;;;;;;;100.00;22.80;;;12.90;99.90;;;;;;5009095;28;20046;-65
2022/10/25 04:28:52;;;;;;;87.78;21.38;;;12.80;99.90;;;;;;5023194;28;20172;-66
2022/10/25 04:31:19;;;;;;;88.43;23.05;;;12.80;99.90;;;;;;5023413;28;20041;-65
2022/10/25 04:33:49;;;;;;;90.68;22.50;;;12.80;99.90;;;;;;5030149;28;20041;-65
2022/10/25 04:36:15;;;;;;;94.60;22.30;;;12.80;99.90;;;;;;5030826;28;20033;-65
2022/10/25 04:38:40;;;;;;;109.07;23.92;;;12.60;99.90;;;;;;5031429;28;20370;-65
2022/10/25 04:41:06;;;;;;;97.18;22.45;;;12.70;99.90;;;;;;5025024;28;20045;-65
2022/10/25 04:43:32;;;;;;;87.43;19.98;;;12.70;99.90;;;;;;5032077;28;20400;-65
2022/10/25 04:46:01;;;;;;;82.57;20.63;;;12.80;99.90;;;;;;5031646;28;20036;-65
2022/10/25 04:48:26;;;;;;;84.47;19.75;;;12.60;99.90;;;;;;5027009;28;20033;-65
2022/10/25 04:50:52;;;;;;;76.03;20.08;;;12.70;99.90;;;;;;5032843;28;20388;-65
2022/10/25 04:53:17;;;;;;;71.35;18.63;;;12.60;99.90;;;;;;5030564;28;20480;-65
2022/10/25 04:55:43;;;;;;;79.85;19.33;;;12.70;99.90;;;;;;5032165;28;20060;-66
2022/10/25 04:58:12;;;;;;;82.20;20.65;;;12.70;99.90;;;;;;5031946;28;20048;-66
2022/10/25 05:00:37;;;;;;;83.68;19.70;;;12.50;99.90;;;;;;5024468;28;20041;-65
2022/10/25 05:03:03;;;;;;;84.13;19.10;;;12.50;99.90;;;;;;5028399;28;20095;-65
2022/10/25 05:05:29;;;;;;;98.00;18.95;;;12.50;99.90;;;;;;5043626;28;20076;-65
2022/10/25 05:07:54;;;;;;;76.63;18.08;;;12.50;99.90;;;;;;5030949;28;20439;-65
2022/10/25 05:10:20;;;;;;;77.25;18.45;;;12.40;99.90;;;;;;5026963;28;20041;-66
2022/10/25 05:12:46;;;;;;;78.65;19.50;;;12.40;99.90;;;;;;5029404;28;20064;-66
2022/10/25 05:15:11;;;;;;;78.72;18.92;;;12.60;99.90;;;;;;5028704;28;20037;-65
2022/10/25 05:17:37;;;;;;;71.85;18.05;;;12.60;99.90;;;;;;5027006;28;20049;-65
2022/10/25 05:20:03;;;;;;;64.05;17.52;;;12.60;99.90;;;;;;5026780;28;20084;-65
2022/10/25 05:22:29;;;;;;;75.43;17.98;;;12.60;99.90;;;;;;5034858;28;20044;-65
2022/10/25 05:24:54;;;;;;;60.60;17.65;;;12.60;99.90;;;;;;5007993;28;20034;-65
2022/10/25 05:27:20;;;;;;;70.03;17.92;;;12.70;99.90;;;;;;5026518;28;20095;-65
2022/10/25 05:29:46;;;;;;;78.15;18.48;;;12.70;99.90;;;;;;5031478;28;20037;-64
2022/10/25 05:32:12;;;;;;;83.43;19.95;;;12.60;99.90;;;;;;5006717;28;20038;-65
2022/10/25 05:34:37;;;;;;;79.97;18.48;;;12.70;99.90;;;;;;5028675;28;20128;-66
2022/10/25 05:37:03;;;;;;;69.97;17.88;;;12.50;99.90;;;;;;5013369;28;20380;-65
2022/10/25 05:39:29;;;;;;;87.35;19.02;;;12.50;99.90;;;;;;5024869;28;20124;-66
2022/10/25 05:41:54;;;;;;;78.50;18.50;;;12.50;99.90;;;;;;5024643;28;20045;-66
2022/10/25 05:44:20;;;;;;;72.30;18.67;;;12.40;99.90;;;;;;5022587;28;20046;-68
2022/10/25 05:46:45;;;;;;;74.13;18.70;;;12.40;99.90;;;;;;5025517;28;20040;-66
2022/10/25 05:49:12;;;;;;;89.82;19.70;;;12.50;99.90;;;;;;5029284;28;20045;-66
2022/10/25 05:51:38;;;;;;;85.13;19.55;;;12.40;99.90;;;;;;5023322;28;20045;-66
2022/10/25 05:54:06;;;;;;;75.63;18.90;;;12.40;99.90;;;;;;5028987;28;20045;-66
2022/10/25 05:56:33;;;;;;;98.78;20.50;;;12.30;99.90;;;;;;5012451;28;20033;-66
2022/10/25 05:59:13;;;;;;;84.55;19.25;;;12.30;99.90;;;;;;5025215;28;20045;-66
2022/10/25 06:01:47;;;;;;;94.57;21.33;;;12.30;99.90;;;;;;5024112;28;20041;-66
2022/10/25 06:04:14;;;;;;;84.15;20.30;;;12.40;99.90;;;;;;5027065;28;20041;-66
2022/10/25 06:06:41;;;;;;;98.80;20.17;;;12.30;99.90;;;;;;5028492;28;20084;-65
2022/10/25 06:09:07;;;;;;;107.35;19.40;;;12.30;99.90;;;;;;5026928;28;20033;-65
2022/10/25 06:11:33;;;;;;;93.25;20.15;;;12.30;99.90;;;;;;5025201;28;20041;-66
2022/10/25 06:14:00;;;;;;;101.93;20.15;;;12.30;99.90;;;;;;5022716;28;20112;-66
2022/10/25 06:16:26;;;;;;;110.40;20.05;;;12.40;99.90;;;;;;5024512;28;20033;-67
2022/10/25 06:18:52;;;;;;;103.60;20.45;;;12.30;99.90;;;;;;5022250;28;20087;-66
2022/10/25 06:21:20;;;;;;;108.30;20.33;;;12.40;99.90;;;;;;5006378;28;20084;-67
2022/10/25 06:23:46;;;;;;;105.93;20.85;;;12.40;99.90;;;;;;5022900;28;20128;-68
2022/10/25 06:26:17;;;;;;;102.25;20.75;;;12.50;99.90;;;;;;5026815;28;20060;-67
2022/10/25 06:28:43;;;;;;;93.00;20.15;;;12.40;99.90;;;;;;5025924;28;20500;-65
2022/10/25 06:31:16;;;;;;;85.82;19.98;;;12.40;99.90;;;;;;5022914;28;20037;-68
2022/10/25 06:33:43;;;;;;;93.22;20.80;;;12.50;99.90;;;;;;5029908;28;20384;-67
2022/10/25 06:36:36;;;;;;;101.45;18.90;;;12.50;99.90;;;;;;5028779;28;20477;-67
2022/10/25 06:39:01;;;;;;;109.78;20.50;;;12.50;99.90;;;;;;5020985;28;20498;-66
2022/10/25 06:41:30;;;;;;;115.00;21.73;;;12.60;99.90;;;;;;5009615;28;20129;-67
2022/10/25 06:43:56;;;;;;;115.03;21.67;;;12.60;99.90;;;;;;5026656;28;20049;-67
2022/10/25 06:46:23;;;;;;;108.60;22.50;;;12.60;99.90;;;;;;5022991;28;20488;-68
2022/10/25 06:48:52;;;;;;;122.00;22.33;;;12.60;99.90;;;;;;5029684;28;20492;-66
2022/10/25 06:51:18;;;;;;;102.80;21.75;;;12.70;99.90;;;;;;5019185;28;20042;-66
2022/10/25 06:53:43;;;;;;;96.47;20.52;;;12.60;99.90;;;;;;5029662;28;20572;-66
2022/10/25 06:56:11;;;;;;;97.90;20.48;;;12.70;99.90;;;;;;5024143;28;20403;-68
2022/10/25 06:58:37;;;;;;;105.85;20.77;;;12.70;99.90;;;;;;5028676;28;20073;-66
2022/10/25 07:01:09;;;;;;;109.72;21.63;;;12.80;99.90;;;;;;5029639;28;20527;-66
2022/10/25 07:03:35;;;;;;;;;;;12.80;99.90;;;;;;5023428;28;20077;-66
2022/10/25 07:06:04;;;;;;;99.20;21.27;;;12.90;99.90;;;;;;5027665;28;19963;-66
2022/10/25 07:08:29;;;;;;;97.68;20.83;;;12.80;99.90;;;;;;5029366;28;20049;-66
2022/10/25 07:10:55;;;;;;;111.05;22.02;;;12.70;99.90;;;;;;5034395;28;20071;-66
2022/10/25 07:13:22;;;;;;;104.22;21.77;;;12.80;99.90;;;;;;5015517;28;20442;-67
2022/10/25 07:15:47;;;;;;;99.88;22.48;;;12.90;99.90;;;;;;5035338;28;20083;-66
2022/10/25 07:18:13;;;;;;;129.25;21.63;;;12.70;99.90;;;;;;5022389;28;20069;-68
2022/10/25 07:20:38;;;;;;;116.97;23.10;;;12.70;99.90;;;;;;5026729;28;20049;-65
2022/10/25 07:23:04;;;;;;;126.97;22.70;;;12.90;99.90;;;;;;5030153;28;20042;-65
2022/10/25 07:25:30;;;;;;;113.28;22.88;;;12.90;99.90;;;;;;5028728;28;20095;-66
2022/10/25 07:27:56;;;;;;;117.18;23.52;;;12.90;99.90;;;;;;5023853;28;20033;-66
2022/10/25 07:30:22;;;;;;;123.90;24.63;;;13.00;99.90;;;;;;5026664;28;20048;-67
2022/10/25 07:32:47;;;;;;;103.15;24.10;;;13.00;99.90;;;;;;5011359;28;20488;-67
2022/10/25 07:35:13;;;;;;;110.65;23.73;;;13.00;99.90;;;;;;5028767;28;20045;-66
2022/10/25 07:37:38;;;;;;;118.25;23.77;;;13.10;99.90;;;;;;5025520;28;20033;-66
2022/10/25 07:40:05;;;;;;;115.75;23.70;;;13.00;99.90;;;;;;5024931;28;20041;-66
2022/10/25 07:42:30;;;;;;;113.38;24.70;;;13.10;99.90;;;;;;5019286;28;20033;-67
2022/10/25 07:44:56;;;;;;;114.38;24.05;;;13.20;99.90;;;;;;5022411;28;20056;-66
2022/10/25 07:47:21;;;;;;;103.72;23.65;;;13.40;99.90;;;;;;5020736;28;20052;-66
2022/10/25 07:49:47;;;;;;;114.43;24.90;;;13.50;99.90;;;;;;5024421;28;20112;-65
2022/10/25 07:52:12;;;;;;;124.15;23.95;;;13.50;99.90;;;;;;5022217;28;20044;-67
2022/10/25 07:54:38;;;;;;;100.55;22.67;;;13.40;99.90;;;;;;5023501;28;20490;-65
2022/10/25 07:57:05;;;;;;;108.90;25.38;;;13.50;99.90;;;;;;5011396;28;20382;-66
2022/10/25 07:59:31;;;;;;;107.45;23.83;;;13.60;99.90;;;;;;5023601;28;20033;-67
2022/10/25 08:01:56;;;;;;;99.22;24.08;;;13.60;99.90;;;;;;5023098;28;20636;-64
2022/10/25 08:04:22;;;;;;;113.45;24.73;;;13.70;99.90;;;;;;5018064;28;20044;-65
2022/10/25 08:06:48;;;;;;;101.70;24.23;;;13.80;99.90;;;;;;5029418;28;20048;-66
2022/10/25 08:09:13;;;;;;;96.32;25.83;;;13.90;99.90;;;;;;5028826;28;20137;-66
2022/10/25 08:11:39;;;;;;;111.30;25.70;;;13.80;99.90;;;;;;5024455;28;20087;-65
2022/10/25 08:14:04;;;;;;;108.32;25.38;;;13.80;99.90;;;;;;5023154;28;20551;-66
2022/10/25 08:16:30;;;;;;;102.50;25.65;;;13.80;99.90;;;;;;5020750;28;20117;-67
2022/10/25 08:18:56;;;;;;;108.32;25.90;;;13.80;99.90;;;;;;5012917;28;20496;-66
2022/10/25 08:21:21;;;;;;;99.78;24.02;;;13.80;99.90;;;;;;5026929;28;20038;-65
2022/10/25 08:23:47;;;;;;;108.93;25.42;;;14.00;99.90;;;;;;5029534;28;20041;-67
2022/10/25 08:26:12;;;;;;;93.72;23.85;;;14.10;99.90;;;;;;5023627;28;20065;-65
2022/10/25 08:28:38;;;;;;;106.40;24.75;;;14.20;99.90;;;;;;5025396;28;20037;-66
2022/10/25 08:31:03;;;;;;;87.13;23.25;;;14.20;99.90;;;;;;5019997;28;20041;-69
2022/10/25 08:33:29;;;;;;;86.93;23.30;;;14.20;99.90;;;;;;5013279;28;20040;-66
2022/10/25 08:35:58;;;;;;;97.25;24.50;;;14.30;99.90;;;;;;5025286;28;20029;-66
2022/10/25 08:38:23;;;;;;;89.78;23.40;;;14.30;99.90;;;;;;5020962;28;20103;-66
2022/10/25 08:41:12;;;;;;;93.43;23.35;;;14.30;99.90;;;;;;5022692;28;20088;-66
2022/10/25 08:43:50;;;;;;;80.90;23.67;;;14.30;99.90;;;;;;5029386;28;20049;-67
2022/10/25 08:46:31;;;;;;;94.20;23.55;;;14.30;99.90;;;;;;5025664;28;20044;-68
2022/10/25 08:49:24;;;;;;;90.87;22.70;;;14.30;99.90;;;;;;5017157;28;20049;-65
2022/10/25 08:51:52;;;;;;;74.95;22.08;;;14.30;99.90;;;;;;5005785;28;20037;-67
2022/10/25 08:54:39;;;;;;;88.32;21.73;;;14.30;99.90;;;;;;5027118;28;20042;-67
2022/10/25 08:57:12;;;;;;;95.97;21.83;;;14.30;99.90;;;;;;5029561;28;20146;-68
2022/10/25 08:59:41;;;;;;;77.65;20.65;;;14.40;99.90;;;;;;5023706;28;20050;-66
2022/10/25 09:02:37;;;;;;;85.47;21.65;;;14.50;99.90;;;;;;5027831;28;20049;-67
2022/10/25 09:05:08;;;;;;;93.70;22.80;;;14.50;99.90;;;;;;5024834;28;20053;-67
2022/10/25 09:07:51;;;;;;;78.35;21.17;;;14.50;99.90;;;;;;5028297;28;20492;-67
2022/10/25 09:10:46;;;;;;;86.75;22.80;;;14.50;99.90;;;;;;5022149;28;20041;-67
2022/10/25 09:13:18;;;;;;;77.32;20.60;;;14.60;99.90;;;;;;5026765;28;20120;-68
2022/10/25 09:15:53;;;;;;;75.83;20.53;;;14.60;99.90;;;;;;5029848;28;20135;-67
2022/10/25 09:18:28;;;;;;;80.88;20.20;;;14.60;99.90;;;;;;5030452;28;20447;-65
2022/10/25 09:20:54;;;;;;;81.10;20.40;;;14.60;99.90;;;;;;5026354;28;20370;-67
2022/10/25 09:23:26;;;;;;;88.75;20.85;;;14.70;99.90;;;;;;5027680;28;20049;-67
2022/10/25 09:26:15;;;;;;;77.18;21.13;;;14.70;99.90;;;;;;5010937;28;20041;-68
2022/10/25 09:28:56;;;;;;;81.72;21.00;;;14.80;99.90;;;;;;5032733;28;20404;-66
2022/10/25 09:31:24;;;;;;;80.80;21.63;;;14.60;99.90;;;;;;5030435;28;20064;-68
2022/10/25 09:33:57;;;;;;;72.45;19.85;;;14.60;99.90;;;;;;5032057;28;20509;-67
2022/10/25 09:36:25;;;;;;;69.47;18.83;;;14.80;99.90;;;;;;5027191;28;20485;-68
2022/10/25 09:38:58;;;;;;;65.75;18.52;;;15.00;99.90;;;;;;5033142;28;20455;-67
2022/10/25 09:41:39;;;;;;;76.10;19.25;;;15.00;99.90;;;;;;5029003;28;20041;-67
2022/10/25 09:44:09;;;;;;;67.68;19.50;;;15.00;99.90;;;;;;5023500;28;20589;-71
2022/10/25 09:46:40;;;;;;;70.20;18.90;;;14.80;99.90;;;;;;5029514;28;20124;-68
2022/10/25 09:49:45;;;;;;;62.20;17.55;;;14.80;99.90;;;;;;5030320;28;20103;-67
2022/10/25 09:52:19;;;;;;;57.40;17.05;;;14.70;99.90;;;;;;5021882;28;20046;-66
2022/10/25 09:55:06;;;;;;;62.70;18.02;;;14.80;99.90;;;;;;5013135;28;20038;-66
2022/10/25 09:57:32;;;;;;;65.07;17.58;;;14.80;99.90;;;;;;5030285;28;20403;-66
2022/10/25 09:59:58;;;;;;;57.63;16.65;;;14.70;99.90;;;;;;5022849;28;20042;-67
2022/10/25 10:02:25;;;;;;;60.67;17.15;;;14.70;99.90;;;;;;5025536;28;20045;-66
2022/10/25 10:04:52;;;;;;;62.50;16.35;;;14.70;99.90;;;;;;5021721;28;20408;-65
2022/10/25 10:07:33;;;;;;;64.70;16.88;;;14.80;99.90;;;;;;5030816;28;20045;-67
2022/10/25 10:10:06;;;;;;;63.35;16.13;;;14.80;99.90;;;;;;5028469;28;20340;-66
2022/10/25 10:12:47;;;;;;;66.30;17.15;;;14.90;99.90;;;;;;5034236;28;20400;-67
2022/10/25 10:15:25;;;;;;;55.92;15.88;;;15.00;99.90;;;;;;5022947;28;20045;-67
2022/10/25 10:18:27;;;;;;;51.60;15.52;;;15.00;99.90;;;;;;5029205;28;20409;-67
2022/10/25 10:21:11;;;;;;;59.78;16.13;;;15.10;99.90;;;;;;5031188;28;20045;-67
2022/10/25 10:23:40;;;;;;;61.75;17.15;;;15.20;99.90;;;;;;5011515;28;20056;-68
2022/10/25 10:26:42;;;;;;;70.75;17.35;;;15.20;99.90;;;;;;5030779;28;20048;-67
2022/10/25 10:29:07;;;;;;;50.75;16.30;;;15.10;99.90;;;;;;5030037;28;20132;-70
2022/10/25 10:31:39;;;;;;;71.75;18.08;;;15.10;99.90;;;;;;5028387;28;20132;-68
2022/10/25 10:34:20;;;;;;;64.90;16.83;;;15.20;99.90;;;;;;5031536;28;20507;-67
2022/10/25 10:36:48;;;;;;;66.13;17.40;;;15.10;99.90;;;;;;5005146;28;20511;-68
2022/10/25 10:39:22;;;;;;;50.50;15.57;;;15.00;99.90;;;;;;5024355;28;20059;-67
2022/10/25 10:42:03;;;;;;;55.88;16.40;;;15.10;99.90;;;;;;5030045;28;20075;-67
2022/10/25 10:44:35;;;;;;;65.10;17.00;;;15.20;99.90;;;;;;5031661;28;20058;-66
2022/10/25 10:47:10;;;;;;;60.40;16.90;;;15.30;99.90;;;;;;5028946;28;20472;-67
2022/10/25 10:49:39;;;;;;;52.22;15.27;;;15.40;99.90;;;;;;5030412;28;20044;-68
2022/10/25 10:52:05;;;;;;;62.08;16.50;;;15.20;99.90;;;;;;5026087;28;20038;-67
2022/10/25 10:54:49;;;;;;;48.08;15.25;;;15.50;99.90;;;;;;5023825;28;20473;-67
2022/10/25 10:57:32;;;;;;;59.03;15.13;;;15.60;99.90;;;;;;5012087;28;20048;-68
2022/10/25 10:59:59;;;;;;;46.90;14.75;;;15.60;99.90;;;;;;5017884;28;20392;-66
2022/10/25 11:02:40;;;;;;;50.85;14.93;;;15.60;99.90;;;;;;5024786;28;20126;-67
2022/10/25 11:05:36;;;;;;;52.67;15.43;;;15.60;99.90;;;;;;5013214;28;20041;-70
2022/10/25 11:08:08;;;;;;;61.58;15.10;;;15.50;99.90;;;;;;5011694;28;20053;-66
2022/10/25 11:10:38;;;;;;;52.83;14.75;;;15.50;99.90;;;;;;5023018;28;20123;-66
2022/10/25 11:13:07;;;;;;;57.97;16.25;;;15.50;99.90;;;;;;5026931;28;20038;-68
2022/10/25 11:15:42;;;;;;;54.80;15.38;;;15.50;99.90;;;;;;5025230;28;20041;-67
2022/10/25 11:18:09;;;;;;;54.40;15.50;;;15.60;99.90;;;;;;5026173;28;20045;-67
2022/10/25 11:20:50;;;;;;;46.10;13.55;;;15.70;99.90;;;;;;5028862;28;20045;-67
2022/10/25 11:23:31;;;;;;;48.15;14.10;;;15.70;99.90;;;;;;5029563;28;20083;-68
2022/10/25 11:26:03;;;;;;;45.45;14.05;;;15.70;99.90;;;;;;5028249;28;20499;-66
2022/10/25 11:28:57;;;;;;;51.50;14.23;;;15.60;99.90;;;;;;5044613;28;20037;-68
2022/10/25 11:31:31;;;;;;;40.75;12.55;;;15.60;99.90;;;;;;5027184;28;20136;-69
2022/10/25 11:34:22;;;;;;;53.25;13.15;;;15.60;99.90;;;;;;5028308;28;20681;-68
2022/10/25 11:37:15;;;;;;;51.60;13.18;;;15.50;99.90;;;;;;5025655;28;20042;-67
2022/10/25 11:40:04;;;;;;;56.80;13.25;;;15.60;99.90;;;;;;5027279;28;20045;-65
2022/10/25 11:42:54;;;;;;;40.53;12.70;;;15.50;99.90;;;;;;5026202;28;20041;-66
2022/10/25 11:45:42;;;;;;;53.40;12.95;;;15.60;99.90;;;;;;5010481;28;20228;-66
2022/10/25 11:48:36;;;;;;;53.92;13.63;;;15.50;99.90;;;;;;5027257;28;20046;-67
2022/10/25 11:51:11;;;;;;;46.30;12.77;;;15.50;99.90;;;;;;5028279;28;20048;-67
2022/10/25 11:54:14;;;;;;;44.75;12.27;;;15.30;99.90;;;;;;5027773;28;20041;-69
2022/10/25 11:57:04;;;;;;;43.55;12.65;;;15.30;99.90;;;;;;5012214;28;20056;-66
2022/10/25 11:59:37;;;;;;;44.53;12.30;;;15.30;99.90;;;;;;5024798;28;20072;-65
2022/10/25 12:02:48;;;;;;;75.18;16.45;;;15.50;99.90;;;;;;5027996;28;20076;-67
2022/10/25 12:05:30;;;;;;;46.60;11.75;;;15.50;99.90;;;;;;5028539;28;20128;-70
2022/10/25 12:08:30;;;;;;;40.83;12.43;;;15.50;99.90;;;;;;5021183;28;20432;-66
2022/10/25 12:11:12;;;;;;;49.88;11.90;;;15.60;99.90;;;;;;5026379;28;20103;-67
2022/10/25 12:13:42;;;;;;;53.28;12.90;;;15.70;99.90;;;;;;5025943;28;20080;-66
2022/10/25 12:16:14;;;;;;;44.90;12.55;;;15.80;99.90;;;;;;5027638;28;20044;-69
2022/10/25 12:18:46;;;;;;;45.38;12.45;;;15.90;99.90;;;;;;5021836;28;20049;-69
2022/10/25 12:21:18;;;;;;;49.63;13.05;;;15.90;99.90;;;;;;5026214;28;20400;-69
2022/10/25 12:23:47;;;;;;;45.15;12.55;;;15.80;99.90;;;;;;5021433;28;20507;-68
2022/10/25 12:26:16;;;;;;;40.90;12.00;;;15.70;99.90;;;;;;5026505;28;20095;-68
2022/10/25 12:28:44;;;;;;;57.58;15.13;;;15.80;99.90;;;;;;5029231;28;20038;-66
2022/10/25 12:31:23;;;;;;;44.85;11.95;;;15.70;99.90;;;;;;5023484;28;20153;-67
2022/10/25 12:34:08;;;;;;;37.92;11.27;;;15.80;99.90;;;;;;5028722;28;20041;-67
2022/10/25 12:36:43;;;;;;;47.17;11.93;;;15.70;99.90;;;;;;5026963;28;20040;-66
2022/10/25 12:39:18;;;;;;;45.78;12.55;;;15.70;99.90;;;;;;5029228;28;20045;-66
2022/10/25 12:41:49;;;;;;;46.85;12.48;;;15.70;99.90;;;;;;5024155;28;20048;-67
2022/10/25 12:44:20;;;;;;;50.25;13.40;;;15.70;99.90;;;;;;5025960;28;20073;-66
2022/10/25 12:47:08;;;;;;;52.70;13.57;;;15.70;99.90;;;;;;5027442;28;20041;-67
2022/10/25 12:50:03;;;;;;;60.20;17.88;;;15.70;99.90;;;;;;5025839;28;20080;-66